Česky Dansk Deutsch English Español Suomi Français Magyar Italiano Nederlands norsk Polski Português svenska Türkçe

 

Het Weer

Ulyanovsk (Rusland)

12:00, 21 augustus 2016 (GMT)

NWNNE
WE
SWSSE
Home            
Ulyanovsk Kazan' Samara Penza Saratov / Tsentralny Nizhny Novgorod/Strigino Uralsk Ufa Orenburg / Tsentralny Perm'/Bolshoe Savino Volgograd Moscow / Domodedovo Voronez Tot'Ma Moscow / Sheremet'Ye Moscow / Vnukovo Aktjubinsk Vologda Kotlas Ekaterinburg Syktyvkar Tver Chelyabinsk-Balandino

Om een weerknop op uw website of weblog te plaatsen, copieer onderstaande code en plak die in uw pagina. In het eerste vakje staat HTML-code, in het tweede vakje UBB-code.


Add to Google

Details

Wind speed:3 bf, 7.8 kn, 4 m/s, 8.9 miles/h, 14.4 km/h
Wind direction:N, 010°
Visibility: 8000 m, 8.0 km, 26247 ft, 5.0 miles
Clouds:Ein wenig bewölkt at 4000 ft, 1219 m
Temperature:30°C, 86°F
Gefühlte Temperatur:29°C, 85°F
Dew-point:15°C, 59°F
Atmospheric pressure:1022 hPa, 766.6 mmHg, 30.18 inHg, 1.009 atm
Relative humidity:40.2 %
METAR:UWLW 211200Z 01004MPS 8000 FEW040CB 30/15 Q1022 R20/CLRD60 NOSIG RMK QFE761

Snelkoppelingen

Actuele weersinformatie van de hele wereld. Voeg locaties toe met het plus (+) symbool. Deze snelkoppelingen kunnen worden toegevoegd aan Google.

Lid van de Technetium groep

website free tracking
StatCounter NetStat W3C Validator

06-12-2019 09:10:14
astro.technetium.be money.technetium.be phote.technetium.be tafeltennistafel.technetium.be www.ligfiets.net